createdAt,value
2017-05-20T00:01:04.733Z,79.00
2017-05-20T00:03:33.052Z,79.00
2017-05-20T00:06:01.366Z,79.70
2017-05-20T00:08:29.740Z,79.60
2017-05-20T00:10:58.045Z,79.40
2017-05-20T00:13:26.394Z,79.60
2017-05-20T00:15:54.773Z,80.10
2017-05-20T00:18:23.166Z,80.80
2017-05-20T00:20:51.549Z,80.40
2017-05-20T00:23:19.913Z,81.80
2017-05-20T00:25:48.307Z,82.90
2017-05-20T00:28:16.664Z,83.30
2017-05-20T00:30:44.977Z,84.30
2017-05-20T00:33:13.426Z,84.30
2017-05-20T00:35:41.830Z,84.30
2017-05-20T00:38:10.141Z,84.20
2017-05-20T00:40:38.457Z,84.70
2017-05-20T00:43:06.841Z,86.50
2017-05-20T00:45:35.153Z,85.90
2017-05-20T00:48:03.458Z,86.60
2017-05-20T00:50:31.897Z,86.70
2017-05-20T00:53:00.255Z,87.20
2017-05-20T00:55:28.633Z,87.30
2017-05-20T00:57:57.018Z,87.70
2017-05-20T01:00:25.440Z,87.70
2017-05-20T01:02:53.771Z,88.10
2017-05-20T01:05:22.066Z,88.20
2017-05-20T01:07:50.440Z,88.90
2017-05-20T01:10:18.725Z,89.10
2017-05-20T01:12:47.097Z,90.00
2017-05-20T01:15:15.389Z,89.20
2017-05-20T01:17:43.764Z,89.20
2017-05-20T01:20:12.085Z,89.30
2017-05-20T01:22:40.512Z,89.90
2017-05-20T01:25:08.806Z,89.20
2017-05-20T01:27:37.130Z,88.80
2017-05-20T01:30:05.450Z,88.50
2017-05-20T01:32:33.853Z,88.20
2017-05-20T01:35:02.305Z,87.70
2017-05-20T01:37:30.685Z,87.90
2017-05-20T01:39:59.009Z,87.90
2017-05-20T01:42:27.309Z,87.80
2017-05-20T01:44:55.708Z,87.80
2017-05-20T01:47:24.094Z,88.00
2017-05-20T01:49:52.461Z,87.80
2017-05-20T01:52:20.764Z,87.60
2017-05-20T01:54:49.137Z,87.30
2017-05-20T01:57:17.504Z,87.30
2017-05-20T01:59:45.817Z,87.40
2017-05-20T02:02:14.117Z,87.30
2017-05-20T02:04:42.441Z,87.70
2017-05-20T02:07:10.741Z,87.50
2017-05-20T02:09:39.037Z,87.40
2017-05-20T02:12:07.354Z,87.40
2017-05-20T02:14:35.652Z,87.20
2017-05-20T02:17:04.122Z,87.10
2017-05-20T02:19:32.446Z,86.80
2017-05-20T02:22:00.813Z,87.30
2017-05-20T02:24:29.164Z,87.50
2017-05-20T02:26:57.553Z,87.60
2017-05-20T02:29:25.848Z,87.50
2017-05-20T02:31:54.179Z,87.50
2017-05-20T02:34:22.581Z,87.00
2017-05-20T02:36:50.906Z,86.80
2017-05-20T02:39:19.268Z,86.50
2017-05-20T02:41:47.615Z,86.10
2017-05-20T02:44:15.915Z,85.90
2017-05-20T02:46:44.330Z,85.10
2017-05-20T02:49:12.701Z,84.90
2017-05-20T02:51:41.074Z,84.60
2017-05-20T02:54:09.373Z,84.30
2017-05-20T02:56:37.732Z,83.40
2017-05-20T02:59:06.121Z,83.20
2017-05-20T03:01:34.489Z,82.80
2017-05-20T03:04:02.874Z,82.90
2017-05-20T03:06:31.249Z,81.70
2017-05-20T03:08:59.566Z,81.40
2017-05-20T03:11:27.866Z,81.30
2017-05-20T03:13:56.340Z,80.60
2017-05-20T03:16:24.743Z,80.70
2017-05-20T03:18:53.103Z,81.10
2017-05-20T03:21:21.503Z,81.50
2017-05-20T03:23:49.811Z,81.80
2017-05-20T03:26:18.122Z,81.70
2017-05-20T03:28:46.439Z,81.60
2017-05-20T03:31:14.749Z,82.80
2017-05-20T03:33:43.074Z,82.20
2017-05-20T03:36:11.395Z,82.70
2017-05-20T03:38:39.693Z,82.90
2017-05-20T03:41:08.033Z,83.20
2017-05-20T03:43:36.388Z,84.00
2017-05-20T03:46:04.713Z,84.30
2017-05-20T03:48:33.031Z,84.60
2017-05-20T03:51:01.363Z,84.70
2017-05-20T03:53:29.707Z,85.30
2017-05-20T03:55:58.169Z,85.60
2017-05-20T03:58:26.549Z,85.70
2017-05-20T04:00:54.857Z,85.90
2017-05-20T04:03:23.166Z,86.10
2017-05-20T04:05:51.477Z,85.60
2017-05-20T04:08:19.877Z,85.40
2017-05-20T04:10:48.245Z,85.80
2017-05-20T04:13:16.534Z,86.00
2017-05-20T04:15:44.899Z,86.30
2017-05-20T04:18:13.290Z,86.80
2017-05-20T04:20:41.963Z,86.30
2017-05-20T04:23:10.346Z,86.50
2017-05-20T04:25:38.733Z,87.10
2017-05-20T04:28:07.110Z,87.50
2017-05-20T04:30:35.498Z,89.10
2017-05-20T04:33:03.870Z,88.00
2017-05-20T04:35:32.245Z,88.00
2017-05-20T04:38:00.636Z,88.40
2017-05-20T04:40:29.017Z,88.70
2017-05-20T04:42:57.397Z,88.10
2017-05-20T04:45:25.761Z,88.50
2017-05-20T04:47:54.092Z,88.10
2017-05-20T04:50:22.426Z,88.90
2017-05-20T04:52:50.806Z,89.50
2017-05-20T04:55:19.177Z,90.30
2017-05-20T04:57:47.461Z,89.20
2017-05-20T05:00:15.843Z,89.40
2017-05-20T05:02:44.186Z,88.30
2017-05-20T05:05:12.652Z,88.40
2017-05-20T05:07:40.969Z,87.90
2017-05-20T05:10:09.353Z,85.70
2017-05-20T05:12:37.649Z,84.40
2017-05-20T05:15:05.976Z,83.90
2017-05-20T05:17:34.326Z,84.30
2017-05-20T05:20:02.629Z,84.80
2017-05-20T05:22:30.933Z,86.10
2017-05-20T05:24:59.243Z,85.80
2017-05-20T05:27:27.537Z,85.50
2017-05-20T05:29:55.847Z,85.50
2017-05-20T05:32:24.224Z,85.30
2017-05-20T05:34:52.535Z,85.00
2017-05-20T05:37:20.846Z,83.00
2017-05-20T05:39:49.287Z,83.20
2017-05-20T05:42:18.996Z,82.30
2017-05-20T05:44:47.308Z,82.90
2017-05-20T05:47:15.723Z,82.20
2017-05-20T05:49:44.083Z,82.10
2017-05-20T05:52:12.473Z,81.30
2017-05-20T05:54:40.765Z,80.90
2017-05-20T05:57:09.085Z,80.20
2017-05-20T05:59:37.374Z,79.70
2017-05-20T06:02:05.769Z,78.80
2017-05-20T06:04:34.167Z,78.00
2017-05-20T06:07:02.544Z,77.90
2017-05-20T06:09:30.907Z,76.70
2017-05-20T06:11:59.345Z,75.50
2017-05-20T06:14:27.654Z,74.60
2017-05-20T06:16:55.978Z,74.30
2017-05-20T06:19:24.336Z,74.30
2017-05-20T06:21:52.726Z,74.10
2017-05-20T06:24:21.044Z,74.60
2017-05-20T06:26:49.351Z,73.70
2017-05-20T06:29:17.755Z,74.00
2017-05-20T06:31:46.130Z,73.80
2017-05-20T06:34:14.449Z,74.40
2017-05-20T06:36:42.773Z,72.90
2017-05-20T06:39:11.073Z,72.80
2017-05-20T06:41:39.362Z,71.90
2017-05-20T06:44:07.715Z,72.30
2017-05-20T06:46:36.105Z,71.40
2017-05-20T06:49:04.442Z,71.60
2017-05-20T06:51:32.735Z,71.20
2017-05-20T06:54:01.038Z,70.90
2017-05-20T06:56:29.349Z,71.30
2017-05-20T06:58:57.700Z,69.40
2017-05-20T07:01:26.007Z,70.80
2017-05-20T07:03:54.310Z,70.90
2017-05-20T07:06:22.627Z,70.80
2017-05-20T07:08:50.976Z,69.20
2017-05-20T07:11:19.379Z,69.20
2017-05-20T07:13:47.764Z,69.30
2017-05-20T07:16:16.085Z,69.10
2017-05-20T07:18:44.534Z,69.50
2017-05-20T07:21:12.850Z,68.80
2017-05-20T07:23:41.162Z,68.10
2017-05-20T07:26:09.548Z,67.70
2017-05-20T07:28:37.838Z,67.40
2017-05-20T07:31:06.303Z,66.40
2017-05-20T07:33:34.597Z,66.60
2017-05-20T07:36:02.893Z,66.30
2017-05-20T07:38:31.226Z,65.80
2017-05-20T07:40:59.633Z,65.50
2017-05-20T07:43:27.990Z,63.90
2017-05-20T07:45:56.278Z,63.70
2017-05-20T07:48:24.646Z,64.00
2017-05-20T07:50:52.933Z,63.20
2017-05-20T07:53:21.316Z,62.90
2017-05-20T07:55:49.773Z,63.40
2017-05-20T07:58:18.102Z,63.30
2017-05-20T08:00:46.437Z,63.50
2017-05-20T08:03:13.985Z,63.50
2017-05-20T08:05:41.506Z,62.80
2017-05-20T08:08:09.815Z,62.50
2017-05-20T08:10:38.223Z,63.30
2017-05-20T08:13:06.619Z,62.60
2017-05-20T08:15:34.922Z,62.70
2017-05-20T08:18:03.253Z,62.60
2017-05-20T08:20:31.636Z,63.10
2017-05-20T08:23:00.015Z,61.70
2017-05-20T08:25:27.575Z,61.70
2017-05-20T08:27:55.102Z,61.10
2017-05-20T08:30:23.434Z,60.70
2017-05-20T08:32:51.803Z,60.00
2017-05-20T08:35:20.125Z,59.60
2017-05-20T08:37:48.457Z,60.40
2017-05-20T08:40:16.834Z,59.10
2017-05-20T08:42:45.205Z,58.50
2017-05-20T08:45:13.597Z,58.50
2017-05-20T08:47:41.981Z,58.50
2017-05-20T08:50:10.347Z,57.80
2017-05-20T08:52:38.658Z,56.90
2017-05-20T08:55:06.943Z,56.20
2017-05-20T08:57:35.250Z,57.50
2017-05-20T09:00:03.570Z,56.40
2017-05-20T09:02:31.885Z,56.70
2017-05-20T09:05:00.209Z,56.60
2017-05-20T09:07:28.531Z,56.50
2017-05-20T09:09:56.863Z,56.40
2017-05-20T09:12:25.241Z,55.10
2017-05-20T09:14:53.625Z,55.00
2017-05-20T09:17:21.942Z,54.50
2017-05-20T09:19:50.257Z,54.90
2017-05-20T09:22:18.663Z,55.00
2017-05-20T09:24:47.045Z,55.80
2017-05-20T09:27:15.434Z,55.00
2017-05-20T09:29:43.795Z,54.40
2017-05-20T09:32:12.126Z,54.50
2017-05-20T09:34:40.446Z,54.70
2017-05-20T09:37:08.755Z,54.40
2017-05-20T09:39:37.093Z,53.20
2017-05-20T09:42:05.493Z,52.40
2017-05-20T09:44:33.806Z,52.00
2017-05-20T09:47:02.099Z,51.40
2017-05-20T09:49:30.485Z,51.60
2017-05-20T09:51:58.783Z,51.10
2017-05-20T09:54:27.183Z,50.20
2017-05-20T09:56:55.477Z,50.80
2017-05-20T09:59:23.812Z,50.80
2017-05-20T10:01:52.098Z,50.90
2017-05-20T10:04:20.437Z,50.60
2017-05-20T10:06:48.730Z,50.00
2017-05-20T10:09:17.031Z,49.70
2017-05-20T10:11:45.343Z,49.90
2017-05-20T10:14:13.674Z,50.30
2017-05-20T10:16:41.991Z,49.40
2017-05-20T10:19:10.289Z,49.30
2017-05-20T10:21:38.592Z,49.30
2017-05-20T10:24:06.997Z,48.20
2017-05-20T10:26:35.376Z,48.00
2017-05-20T10:29:03.674Z,48.10
2017-05-20T10:31:32.023Z,48.50
2017-05-20T10:34:00.314Z,48.50
2017-05-20T10:36:28.625Z,48.20
2017-05-20T10:38:56.950Z,48.10
2017-05-20T10:41:25.266Z,48.40
2017-05-20T10:43:53.557Z,47.70
2017-05-20T10:46:21.959Z,47.30
2017-05-20T10:48:50.372Z,47.30
2017-05-20T10:51:18.829Z,47.60
2017-05-20T10:53:47.146Z,46.70
2017-05-20T10:56:15.461Z,46.70
2017-05-20T10:58:43.849Z,45.80
2017-05-20T11:01:12.133Z,45.60
2017-05-20T11:03:40.512Z,45.70
2017-05-20T11:06:08.810Z,47.20
2017-05-20T11:08:37.245Z,47.00
2017-05-20T11:11:05.537Z,47.00
2017-05-20T11:13:34.003Z,47.30
2017-05-20T11:16:02.401Z,48.90
2017-05-20T11:18:30.764Z,47.10
2017-05-20T11:20:59.152Z,45.90
2017-05-20T11:23:27.462Z,45.80
2017-05-20T11:25:55.762Z,46.00
2017-05-20T11:28:24.088Z,46.30
2017-05-20T11:30:52.469Z,47.10
2017-05-20T11:33:20.761Z,47.10
2017-05-20T11:35:49.071Z,47.30
2017-05-20T11:38:17.367Z,46.90
2017-05-20T11:40:45.666Z,47.00
2017-05-20T11:43:13.977Z,47.00
2017-05-20T11:45:42.296Z,46.20
2017-05-20T11:48:10.583Z,46.70
2017-05-20T11:50:38.895Z,45.60
2017-05-20T11:53:07.198Z,45.70
2017-05-20T11:55:35.548Z,46.40
2017-05-20T11:58:03.863Z,45.80
2017-05-20T12:00:32.189Z,45.50
2017-05-20T12:03:00.579Z,45.60
2017-05-20T12:05:28.960Z,45.80
2017-05-20T12:07:57.334Z,45.60
2017-05-20T12:10:25.704Z,46.20
2017-05-20T12:12:54.089Z,47.60
2017-05-20T12:15:22.382Z,48.70
2017-05-20T12:17:50.690Z,47.30
2017-05-20T12:20:19.021Z,45.90
2017-05-20T12:22:46.557Z,45.80
2017-05-20T12:25:14.085Z,45.70
2017-05-20T12:27:41.609Z,45.00
2017-05-20T12:30:09.985Z,45.90
2017-05-20T12:32:38.354Z,45.90
2017-05-20T12:35:05.898Z,45.90
2017-05-20T12:37:35.162Z,46.10
2017-05-20T12:40:03.727Z,44.50
2017-05-20T12:42:32.132Z,45.60
2017-05-20T12:45:00.915Z,46.60
2017-05-20T12:47:29.340Z,47.20
2017-05-20T12:49:57.667Z,47.70
2017-05-20T12:52:25.957Z,48.10
2017-05-20T12:54:54.258Z,48.30
2017-05-20T12:57:22.671Z,47.70
2017-05-20T12:59:51.042Z,47.30
2017-05-20T13:02:19.434Z,46.80
2017-05-20T13:04:47.804Z,46.80
2017-05-20T13:07:16.177Z,47.80
2017-05-20T13:09:44.555Z,48.60
2017-05-20T13:12:12.992Z,47.90
2017-05-20T13:14:41.335Z,47.60
2017-05-20T13:17:09.856Z,47.40
2017-05-20T13:19:38.273Z,46.80
2017-05-20T13:22:06.597Z,47.90
2017-05-20T13:24:34.926Z,45.20
2017-05-20T13:27:03.301Z,45.60
2017-05-20T13:29:31.662Z,45.60
2017-05-20T13:32:00.084Z,45.90
2017-05-20T13:34:28.459Z,45.70
2017-05-20T13:36:56.768Z,45.00
2017-05-20T13:39:25.110Z,44.50
2017-05-20T13:41:53.425Z,44.20
2017-05-20T13:44:21.724Z,43.40
2017-05-20T13:46:50.050Z,43.00
2017-05-20T13:49:18.375Z,44.00
2017-05-20T13:51:46.697Z,45.10
2017-05-20T13:54:15.125Z,45.80
2017-05-20T13:56:43.449Z,44.80
2017-05-20T13:59:11.749Z,42.40
2017-05-20T14:01:40.060Z,40.90
2017-05-20T14:04:08.398Z,40.10
2017-05-20T14:06:36.781Z,39.40
2017-05-20T14:09:05.085Z,38.80
2017-05-20T14:11:33.369Z,39.70
2017-05-20T14:14:01.682Z,41.80
2017-05-20T14:16:29.977Z,43.30
2017-05-20T14:18:58.339Z,43.90
2017-05-20T14:21:26.705Z,44.90
2017-05-20T14:23:54.998Z,46.00
2017-05-20T14:26:23.362Z,46.70
2017-05-20T14:28:51.741Z,44.50
2017-05-20T14:31:20.065Z,44.00
2017-05-20T14:33:48.370Z,43.60
2017-05-20T14:36:16.781Z,45.10
2017-05-20T14:38:45.097Z,44.30
2017-05-20T14:41:13.438Z,44.70
2017-05-20T14:43:41.736Z,46.00
2017-05-20T14:46:10.086Z,46.30
2017-05-20T14:48:38.389Z,46.20
2017-05-20T14:51:06.749Z,45.80
2017-05-20T14:53:35.129Z,42.00
2017-05-20T14:56:03.506Z,39.60
2017-05-20T14:58:31.813Z,36.70
2017-05-20T15:01:00.173Z,36.30
2017-05-20T15:03:28.537Z,36.00
2017-05-20T15:05:56.917Z,37.30
2017-05-20T15:08:25.299Z,38.70
2017-05-20T15:10:53.693Z,39.70
2017-05-20T15:13:22.066Z,39.50
2017-05-20T15:15:50.440Z,38.10
2017-05-20T15:18:18.745Z,38.40
2017-05-20T15:20:47.090Z,40.60
2017-05-20T15:23:15.485Z,41.40
2017-05-20T15:25:43.949Z,42.60
2017-05-20T15:28:12.262Z,43.00
2017-05-20T15:30:40.558Z,43.70
2017-05-20T15:33:08.853Z,42.50
2017-05-20T15:35:37.273Z,41.90
2017-05-20T15:38:05.654Z,43.00
2017-05-20T15:40:34.029Z,43.50
2017-05-20T15:43:02.409Z,42.70
2017-05-20T15:45:30.714Z,42.30
2017-05-20T15:47:59.010Z,40.50
2017-05-20T15:50:27.336Z,40.60
2017-05-20T15:52:55.715Z,41.00
2017-05-20T15:55:24.023Z,41.40
2017-05-20T15:57:52.385Z,41.00
2017-05-20T16:00:20.768Z,40.90
2017-05-20T16:02:49.134Z,41.00
2017-05-20T16:05:17.437Z,39.90
2017-05-20T16:07:45.789Z,39.60
2017-05-20T16:10:14.093Z,38.40
2017-05-20T16:12:42.454Z,37.90
2017-05-20T16:15:10.782Z,37.60
2017-05-20T16:17:39.089Z,37.20
2017-05-20T16:20:07.480Z,37.00
2017-05-20T16:22:35.790Z,36.90
2017-05-20T16:25:04.123Z,34.80
2017-05-20T16:27:32.519Z,34.70
2017-05-20T16:30:00.822Z,35.60
2017-05-20T16:32:29.125Z,35.50
2017-05-20T16:34:57.447Z,36.50
2017-05-20T16:37:25.759Z,36.30
2017-05-20T16:39:54.062Z,35.50
2017-05-20T16:42:22.478Z,34.80
2017-05-20T16:44:50.786Z,35.60
2017-05-20T16:47:19.115Z,36.00
2017-05-20T16:49:47.411Z,36.50
2017-05-20T16:52:15.728Z,35.60
2017-05-20T16:54:44.066Z,34.80
2017-05-20T16:57:12.367Z,34.40
2017-05-20T16:59:41.094Z,34.10
2017-05-20T17:02:09.399Z,34.40
2017-05-20T17:04:37.727Z,33.30
2017-05-20T17:07:06.028Z,33.10
2017-05-20T17:09:34.354Z,32.80
2017-05-20T17:12:02.687Z,33.20
2017-05-20T17:14:30.995Z,33.60
2017-05-20T17:16:59.378Z,34.40
2017-05-20T17:19:27.698Z,34.80
2017-05-20T17:21:56.012Z,36.50
2017-05-20T17:24:24.406Z,37.50
2017-05-20T17:26:53.243Z,38.70
2017-05-20T17:29:21.576Z,39.90
2017-05-20T17:31:49.874Z,40.60
2017-05-20T17:34:18.250Z,41.80
2017-05-20T17:36:46.594Z,42.10
2017-05-20T17:39:14.895Z,42.70
2017-05-20T17:41:43.209Z,42.90
2017-05-20T17:44:11.554Z,42.40
2017-05-20T17:46:39.870Z,42.80
2017-05-20T17:49:08.179Z,42.40
2017-05-20T17:51:36.581Z,41.90
2017-05-20T17:54:04.889Z,41.10
2017-05-20T17:56:33.250Z,41.50
2017-05-20T17:59:01.556Z,42.20
2017-05-20T18:01:29.994Z,42.90
2017-05-20T18:03:58.286Z,43.60
2017-05-20T18:06:26.597Z,44.10
2017-05-20T18:08:54.939Z,45.80
2017-05-20T18:11:23.333Z,45.70
2017-05-20T18:13:51.641Z,45.40
2017-05-20T18:16:19.966Z,45.40
2017-05-20T18:18:48.270Z,45.10
2017-05-20T18:21:16.552Z,44.60
2017-05-20T18:23:44.957Z,44.70
2017-05-20T18:26:13.265Z,44.60
2017-05-20T18:28:41.626Z,44.90
2017-05-20T18:31:09.921Z,44.70
2017-05-20T18:33:38.334Z,44.50
2017-05-20T18:36:06.626Z,45.10
2017-05-20T18:38:35.038Z,46.10
2017-05-20T18:41:03.372Z,46.40
2017-05-20T18:43:31.692Z,48.10
2017-05-20T18:45:59.996Z,47.20
2017-05-20T18:48:28.359Z,47.80
2017-05-20T18:50:56.744Z,49.00
2017-05-20T18:53:25.117Z,48.90
2017-05-20T18:55:53.443Z,49.60
2017-05-20T18:58:21.777Z,50.00
2017-05-20T19:00:50.086Z,51.90
2017-05-20T19:03:18.392Z,52.00
2017-05-20T19:05:46.706Z,52.70
2017-05-20T19:08:15.013Z,51.40
2017-05-20T19:10:43.326Z,51.10
2017-05-20T19:13:11.734Z,53.10
2017-05-20T19:15:40.106Z,53.90
2017-05-20T19:18:08.511Z,51.90
2017-05-20T19:20:36.825Z,53.70
2017-05-20T19:23:05.117Z,54.60
2017-05-20T19:25:33.421Z,53.60
2017-05-20T19:28:01.723Z,55.40
2017-05-20T19:30:30.022Z,52.90
2017-05-20T19:32:58.421Z,55.60
2017-05-20T19:35:26.743Z,55.60
2017-05-20T19:37:55.121Z,54.70
2017-05-20T19:40:23.485Z,55.30
2017-05-20T19:42:51.794Z,54.40
2017-05-20T19:45:20.093Z,54.20
2017-05-20T19:47:48.439Z,56.40
2017-05-20T19:50:16.736Z,55.60
2017-05-20T19:52:45.064Z,55.00
2017-05-20T19:55:13.367Z,56.70
2017-05-20T19:57:41.733Z,55.70
2017-05-20T20:00:10.035Z,54.70
2017-05-20T20:02:37.595Z,54.60
2017-05-20T20:05:05.958Z,57.40
2017-05-20T20:07:35.178Z,57.60
2017-05-20T20:10:03.538Z,57.50
2017-05-20T20:12:31.886Z,55.70
2017-05-20T20:15:00.210Z,55.50
2017-05-20T20:17:28.517Z,56.40
2017-05-20T20:19:56.834Z,57.40
2017-05-20T20:22:25.214Z,55.90
2017-05-20T20:24:53.611Z,56.10
2017-05-20T20:27:21.911Z,55.90
2017-05-20T20:29:50.267Z,58.40
2017-05-20T20:32:18.647Z,57.20
2017-05-20T20:34:47.187Z,58.60
2017-05-20T20:37:15.494Z,57.40
2017-05-20T20:39:43.823Z,60.00
2017-05-20T20:42:12.143Z,57.30
2017-05-20T20:44:40.461Z,57.00
2017-05-20T20:47:08.766Z,59.00
2017-05-20T20:49:37.157Z,59.20
2017-05-20T20:52:05.565Z,59.70
2017-05-20T20:54:33.887Z,58.00
2017-05-20T20:57:02.225Z,57.60
2017-05-20T20:59:30.544Z,60.20
2017-05-20T21:01:58.877Z,59.80
2017-05-20T21:04:27.175Z,58.20
2017-05-20T21:06:55.501Z,58.50
2017-05-20T21:09:23.817Z,60.90
2017-05-20T21:11:52.143Z,60.40
2017-05-20T21:14:20.466Z,62.20
2017-05-20T21:16:48.781Z,62.50
2017-05-20T21:19:17.074Z,63.00
2017-05-20T21:21:45.423Z,62.60
2017-05-20T21:24:13.724Z,63.60
2017-05-20T21:26:42.047Z,63.70
2017-05-20T21:29:10.351Z,63.60
2017-05-20T21:31:38.696Z,63.60
2017-05-20T21:34:07.108Z,63.90
2017-05-20T21:36:35.423Z,64.10
2017-05-20T21:39:03.972Z,64.80
2017-05-20T21:41:32.449Z,65.00
2017-05-20T21:44:00.825Z,64.40
2017-05-20T21:46:29.134Z,64.90
2017-05-20T21:48:57.469Z,66.20
2017-05-20T21:51:25.808Z,65.80
2017-05-20T21:53:54.184Z,65.90
2017-05-20T21:56:22.583Z,66.40
2017-05-20T21:58:50.906Z,63.80
2017-05-20T22:01:19.211Z,63.80
2017-05-20T22:03:47.525Z,63.70
2017-05-20T22:06:15.831Z,65.30
2017-05-20T22:08:44.151Z,64.50
2017-05-20T22:11:12.454Z,64.00
2017-05-20T22:13:40.819Z,66.00
2017-05-20T22:16:09.207Z,66.60
2017-05-20T22:18:37.512Z,66.00
2017-05-20T22:21:05.825Z,66.70
2017-05-20T22:23:34.138Z,65.50
2017-05-20T22:26:02.497Z,67.50
2017-05-20T22:28:30.803Z,67.80
2017-05-20T22:30:59.153Z,66.60
2017-05-20T22:33:27.547Z,68.10
2017-05-20T22:35:55.862Z,68.70
2017-05-20T22:38:24.168Z,69.30
2017-05-20T22:40:52.493Z,69.50
2017-05-20T22:43:20.786Z,69.70
2017-05-20T22:45:49.147Z,70.00
2017-05-20T22:48:17.449Z,70.00
2017-05-20T22:50:45.760Z,70.10
2017-05-20T22:53:14.158Z,70.60
2017-05-20T22:55:42.538Z,70.60
2017-05-20T22:58:10.922Z,70.30
2017-05-20T23:00:39.237Z,70.00
2017-05-20T23:03:07.564Z,69.20
2017-05-20T23:05:35.953Z,70.80
2017-05-20T23:08:04.285Z,70.00
2017-05-20T23:10:32.584Z,69.20
2017-05-20T23:13:00.899Z,69.60
2017-05-20T23:15:29.270Z,69.00
2017-05-20T23:17:57.655Z,70.60
2017-05-20T23:20:26.052Z,69.40
2017-05-20T23:22:54.402Z,71.20
2017-05-20T23:25:22.782Z,71.20
2017-05-20T23:27:51.193Z,69.70
2017-05-20T23:30:19.553Z,70.00
2017-05-20T23:32:47.913Z,69.80
2017-05-20T23:35:16.221Z,70.90
2017-05-20T23:37:44.587Z,71.20
2017-05-20T23:40:12.964Z,71.70
2017-05-20T23:42:41.338Z,71.90
2017-05-20T23:45:09.645Z,72.00
2017-05-20T23:47:37.937Z,72.90
2017-05-20T23:50:06.262Z,72.70
2017-05-20T23:52:34.561Z,73.30
2017-05-20T23:55:02.925Z,72.60
2017-05-20T23:57:31.229Z,73.10
2017-05-20T23:59:59.581Z,72.40
